createdAt,value
2023-01-02T00:03:21.909Z,88.15
2023-01-02T00:08:24.286Z,88.00
2023-01-02T00:13:26.788Z,87.98
2023-01-02T00:18:29.031Z,88.01
2023-01-02T00:23:31.540Z,87.82
2023-01-02T00:28:34.213Z,87.87
2023-01-02T00:33:37.195Z,87.76
2023-01-02T00:38:40.695Z,87.79
2023-01-02T00:43:43.901Z,88.08
2023-01-02T00:48:46.183Z,87.85
2023-01-02T00:53:48.565Z,88.00
2023-01-02T00:58:50.810Z,87.90
2023-01-02T01:03:56.000Z,87.75
2023-01-02T01:08:58.278Z,87.78
2023-01-02T01:14:01.959Z,87.83
2023-01-02T01:19:04.296Z,87.96
2023-01-02T01:24:06.954Z,88.23
2023-01-02T01:29:09.182Z,88.25
2023-01-02T01:34:15.208Z,88.13
2023-01-02T01:39:17.497Z,88.28
2023-01-02T01:44:45.597Z,88.37
2023-01-02T01:49:48.420Z,88.14
2023-01-02T01:55:16.829Z,88.41
2023-01-02T02:00:21.278Z,88.51
2023-01-02T02:05:27.188Z,88.43
2023-01-02T02:10:29.635Z,88.71
2023-01-02T02:15:41.557Z,88.61
2023-01-02T02:20:53.854Z,88.67
2023-01-02T02:26:14.333Z,88.67
2023-01-02T02:31:21.179Z,88.51
2023-01-02T02:36:29.400Z,88.62
2023-01-02T02:41:33.627Z,88.58
2023-01-02T02:46:56.558Z,88.41
2023-01-02T02:52:10.923Z,88.58
2023-01-02T02:57:13.780Z,88.39
2023-01-02T03:02:17.845Z,88.36
2023-01-02T03:07:34.498Z,88.54
2023-01-02T03:12:59.642Z,88.32
2023-01-02T03:18:31.284Z,88.23
2023-01-02T03:23:43.606Z,88.26
2023-01-02T03:28:48.320Z,88.09
2023-01-02T03:33:52.922Z,88.09
2023-01-02T03:39:00.728Z,88.16
2023-01-02T03:44:04.314Z,88.16
2023-01-02T03:49:14.188Z,88.06
2023-01-02T03:54:16.391Z,88.17
2023-01-02T03:59:43.093Z,87.89
2023-01-02T04:04:58.829Z,87.85
2023-01-02T04:10:01.755Z,87.97
2023-01-02T04:15:15.748Z,87.95
2023-01-02T04:20:22.351Z,88.07
2023-01-02T04:25:28.370Z,87.72
2023-01-02T04:30:32.651Z,87.86
2023-01-02T04:35:35.364Z,87.79
2023-01-02T04:40:38.494Z,87.49
2023-01-02T04:45:40.874Z,87.70
2023-01-02T04:50:43.972Z,87.76
2023-01-02T04:55:46.307Z,87.58
2023-01-02T05:00:48.521Z,87.39
2023-01-02T05:05:50.776Z,87.32
2023-01-02T05:10:53.018Z,87.62
2023-01-02T05:15:56.877Z,87.55
2023-01-02T05:21:03.800Z,87.35
2023-01-02T05:26:11.864Z,87.00
2023-01-02T05:31:14.267Z,86.95
2023-01-02T05:36:16.455Z,86.95
2023-01-02T05:41:20.124Z,86.80
2023-01-02T05:46:22.571Z,86.74
2023-01-02T05:51:24.793Z,86.68
2023-01-02T05:56:28.301Z,86.53
2023-01-02T06:01:30.743Z,86.25
2023-01-02T06:06:38.173Z,86.10
2023-01-02T06:11:41.649Z,85.88
2023-01-02T06:16:43.914Z,85.80
2023-01-02T06:21:46.203Z,85.47
2023-01-02T06:26:48.400Z,84.98
2023-01-02T06:31:51.915Z,84.78
2023-01-02T06:36:54.378Z,84.56
2023-01-02T06:41:56.666Z,84.18
2023-01-02T06:46:58.948Z,83.87
2023-01-02T06:52:01.247Z,83.70
2023-01-02T06:57:03.555Z,83.47
2023-01-02T07:02:06.483Z,83.43
2023-01-02T07:07:09.070Z,83.28
2023-01-02T07:12:11.340Z,83.05
2023-01-02T07:17:13.541Z,82.88
2023-01-02T07:22:18.772Z,82.47
2023-01-02T07:27:21.007Z,82.50
2023-01-02T07:32:27.334Z,82.54
2023-01-02T07:37:30.109Z,82.18
2023-01-02T07:42:32.564Z,82.08
2023-01-02T07:47:34.819Z,80.99
2023-01-02T07:52:37.020Z,77.75
2023-01-02T07:57:39.215Z,75.63
2023-01-02T08:02:41.584Z,75.00
2023-01-02T08:07:45.427Z,75.92
2023-01-02T08:12:47.783Z,76.73
2023-01-02T08:17:51.149Z,76.98
2023-01-02T08:22:53.539Z,77.36
2023-01-02T08:27:55.725Z,77.22
2023-01-02T08:32:57.995Z,77.24
2023-01-02T08:38:00.296Z,77.36
2023-01-02T08:43:02.723Z,77.29
2023-01-02T08:48:20.252Z,77.11
2023-01-02T08:53:23.569Z,76.81
2023-01-02T08:58:25.826Z,76.90
2023-01-02T09:03:31.184Z,76.87
2023-01-02T09:08:33.445Z,76.66
2023-01-02T09:13:35.738Z,76.41
2023-01-02T09:18:39.141Z,76.50
2023-01-02T09:23:41.581Z,76.36
2023-01-02T09:28:44.116Z,76.42
2023-01-02T09:33:47.826Z,75.92
2023-01-02T09:39:00.764Z,75.26
2023-01-02T09:44:11.828Z,75.13
2023-01-02T09:49:17.733Z,74.91
2023-01-02T09:54:40.001Z,74.40
2023-01-02T09:59:51.536Z,74.18
2023-01-02T10:05:31.048Z,74.39
2023-01-02T10:10:41.984Z,74.53
2023-01-02T10:15:47.371Z,74.24
2023-01-02T10:20:55.930Z,73.98
2023-01-02T10:26:04.465Z,73.60
2023-01-02T10:31:14.879Z,73.27
2023-01-02T10:36:35.439Z,73.27
2023-01-02T10:41:37.972Z,73.69
2023-01-02T10:46:41.671Z,72.77
2023-01-02T11:02:55.289Z,73.10
2023-01-02T11:07:58.288Z,72.85
2023-01-02T11:13:23.365Z,73.05
2023-01-02T11:18:30.792Z,73.08
2023-01-02T11:23:38.570Z,73.13
2023-01-02T11:28:41.613Z,73.75
2023-01-02T11:33:44.873Z,73.52
2023-01-02T11:44:06.515Z,73.57
2023-01-02T11:49:12.317Z,73.67
2023-01-02T11:54:19.914Z,73.62
2023-01-02T11:59:37.135Z,73.45
2023-01-02T12:04:40.084Z,73.84
2023-01-02T12:09:53.457Z,73.49
2023-01-02T12:15:07.748Z,73.19
2023-01-02T12:20:13.132Z,73.75
2023-01-02T12:25:34.024Z,73.66
2023-01-02T12:30:40.706Z,73.54
2023-01-02T12:36:02.837Z,73.61
2023-01-02T12:42:02.566Z,73.23
2023-01-02T12:47:24.010Z,73.62
2023-01-02T12:52:51.141Z,73.76
2023-01-02T13:09:22.317Z,74.31
2023-01-02T13:14:38.624Z,73.97
2023-01-02T13:19:47.567Z,74.18
2023-01-02T13:24:51.102Z,74.34
2023-01-02T13:29:53.953Z,74.18
2023-01-02T13:40:26.881Z,74.09
2023-01-02T13:45:42.194Z,74.02
2023-01-02T13:50:45.607Z,74.28
2023-01-02T13:56:18.517Z,73.81
2023-01-02T14:01:21.637Z,74.26
2023-01-02T14:06:30.578Z,74.40
2023-01-02T14:11:57.811Z,74.32
2023-01-02T14:17:27.575Z,74.19
2023-01-02T14:22:29.778Z,74.54
2023-01-02T14:27:33.523Z,74.70
2023-01-02T14:32:39.391Z,74.72
2023-01-02T14:37:45.590Z,74.74
2023-01-02T14:43:19.776Z,74.38
2023-01-02T14:48:30.498Z,74.52
2023-01-02T14:53:37.940Z,74.58
2023-01-02T14:58:44.221Z,74.62
2023-01-02T15:03:51.742Z,74.65
2023-01-02T15:08:59.440Z,74.54
2023-01-02T15:14:04.011Z,74.59
2023-01-02T15:19:16.005Z,74.42
2023-01-02T15:24:30.619Z,74.29
2023-01-02T15:34:50.969Z,74.95
2023-01-02T15:39:53.776Z,74.84
2023-01-02T15:45:13.436Z,74.73
2023-01-02T15:50:22.489Z,74.52
2023-01-02T15:55:27.039Z,74.84
2023-01-02T16:00:38.417Z,74.58
2023-01-02T16:05:55.477Z,74.27
2023-01-02T16:11:04.794Z,74.76
2023-01-02T16:21:31.361Z,74.66
2023-01-02T16:26:40.558Z,74.22
2023-01-02T16:31:58.478Z,74.70
2023-01-02T16:37:16.755Z,74.66
2023-01-02T16:42:36.937Z,74.82
2023-01-02T16:47:43.329Z,75.11
2023-01-02T16:52:46.019Z,75.06
2023-01-02T16:57:50.755Z,74.96
2023-01-02T17:08:09.368Z,75.36
2023-01-02T17:13:12.036Z,75.24
2023-01-02T17:18:18.765Z,75.43
2023-01-02T17:23:22.542Z,75.60
2023-01-02T17:28:25.232Z,75.35
2023-01-02T17:33:30.495Z,75.15
2023-01-02T17:38:32.917Z,75.14
2023-01-02T17:43:35.381Z,75.48
2023-01-02T17:48:38.085Z,75.33
2023-01-02T17:53:43.363Z,75.39
2023-01-02T17:58:46.121Z,75.41
2023-01-02T18:03:51.659Z,75.13
2023-01-02T18:08:55.915Z,75.11
2023-01-02T18:19:17.672Z,75.54
2023-01-02T18:29:59.276Z,75.20
2023-01-02T18:35:46.648Z,75.29
2023-01-02T18:40:37.792Z,75.46
2023-01-02T18:45:41.412Z,75.51
2023-01-02T18:50:46.805Z,75.49
2023-01-02T18:55:51.709Z,75.58
2023-01-02T19:06:21.422Z,75.63
2023-01-02T19:11:52.406Z,75.68
2023-01-02T19:17:13.605Z,75.65
2023-01-02T19:22:21.859Z,75.71
2023-01-02T19:27:37.349Z,75.57
2023-01-02T19:32:39.913Z,75.80
2023-01-02T19:37:43.485Z,75.78
2023-01-02T19:48:04.510Z,75.82
2023-01-02T19:53:07.000Z,75.84
2023-01-02T19:58:11.576Z,75.82
2023-01-02T20:03:14.012Z,75.95
2023-01-02T20:08:16.376Z,75.94
2023-01-02T20:13:20.926Z,76.06
2023-01-02T20:18:23.417Z,75.92
2023-01-02T20:23:25.723Z,76.21
2023-01-02T20:28:28.056Z,76.40
2023-01-02T20:33:30.446Z,76.07
2023-01-02T20:38:32.737Z,76.40
2023-01-02T20:43:35.211Z,76.31
2023-01-02T20:48:37.677Z,76.53
2023-01-02T20:53:40.008Z,76.31
2023-01-02T20:58:42.331Z,76.33
2023-01-02T21:03:44.757Z,76.44
2023-01-02T21:08:47.099Z,76.18
2023-01-02T21:13:52.407Z,76.47
2023-01-02T21:18:54.722Z,76.41
2023-01-02T21:23:57.271Z,76.45
2023-01-02T21:28:59.823Z,76.47
2023-01-02T21:34:02.131Z,76.84
2023-01-02T21:39:04.575Z,76.81
2023-01-02T21:44:07.488Z,76.55
2023-01-02T21:49:09.828Z,76.65
2023-01-02T21:54:12.411Z,76.72
2023-01-02T21:59:14.664Z,76.74
2023-01-02T22:09:33.194Z,76.99
2023-01-02T22:14:37.431Z,76.93
2023-01-02T22:19:40.179Z,77.10
2023-01-02T22:24:44.710Z,76.99
2023-01-02T22:35:22.509Z,77.15
2023-01-02T22:40:24.975Z,77.11
2023-01-02T22:45:33.847Z,77.55
2023-01-02T22:50:42.724Z,77.29
2023-01-02T22:55:45.031Z,77.35
2023-01-02T23:00:48.603Z,77.46
2023-01-02T23:11:08.245Z,77.66
2023-01-02T23:16:29.030Z,77.59
2023-01-02T23:21:33.283Z,77.66
2023-01-02T23:31:56.482Z,77.60
2023-01-02T23:37:00.403Z,77.95
2023-01-02T23:42:03.402Z,77.90
2023-01-02T23:47:10.885Z,77.67
2023-01-02T23:52:16.942Z,77.79
2023-01-02T23:57:19.712Z,77.69
